sensor_id;sensor_type;location;lat;lon;timestamp;pressure;altitude;pressure_sealevel;temperature;humidity
29169;BME280;16219;42.864;23.360;2023-05-29T00:01:52;95620.00;;;14.36;100.00
29169;BME280;16219;42.864;23.360;2023-05-29T00:04:19;95633.03;;;14.41;100.00
29169;BME280;16219;42.864;23.360;2023-05-29T00:06:47;95616.91;;;14.34;100.00
29169;BME280;16219;42.864;23.360;2023-05-29T00:09:14;95633.03;;;14.41;100.00
29169;BME280;16219;42.864;23.360;2023-05-29T00:11:42;95629.75;;;14.32;100.00
29169;BME280;16219;42.864;23.360;2023-05-29T00:14:09;95622.06;;;14.15;100.00
29169;BME280;16219;42.864;23.360;2023-05-29T00:16:39;95621.72;;;14.16;100.00
29169;BME280;16219;42.864;23.360;2023-05-29T00:19:08;95628.78;;;14.24;100.00
29169;BME280;16219;42.864;23.360;2023-05-29T00:21:35;95617.19;;;14.17;100.00
29169;BME280;16219;42.864;23.360;2023-05-29T00:24:02;95622.25;;;14.22;100.00
29169;BME280;16219;42.864;23.360;2023-05-29T00:26:29;95598.41;;;14.10;100.00
29169;BME280;16219;42.864;23.360;2023-05-29T00:28:57;95624.25;;;14.25;100.00
29169;BME280;16219;42.864;23.360;2023-05-29T00:31:24;95617.84;;;14.14;100.00
29169;BME280;16219;42.864;23.360;2023-05-29T00:33:52;95614.19;;;14.18;100.00
29169;BME280;16219;42.864;23.360;2023-05-29T00:36:20;95595.22;;;14.04;100.00
29169;BME280;16219;42.864;23.360;2023-05-29T00:38:49;95585.63;;;13.99;100.00
29169;BME280;16219;42.864;23.360;2023-05-29T00:41:16;95601.00;;;14.06;100.00
29169;BME280;16219;42.864;23.360;2023-05-29T00:43:44;95613.91;;;14.08;100.00
29169;BME280;16219;42.864;23.360;2023-05-29T00:46:13;95610.72;;;14.02;100.00
29169;BME280;16219;42.864;23.360;2023-05-29T00:48:41;95591.13;;;13.66;100.00
29169;BME280;16219;42.864;23.360;2023-05-29T00:51:10;95584.72;;;13.67;100.00
29169;BME280;16219;42.864;23.360;2023-05-29T00:53:40;95585.69;;;13.75;100.00
29169;BME280;16219;42.864;23.360;2023-05-29T00:56:09;95592.53;;;13.76;100.00
29169;BME280;16219;42.864;23.360;2023-05-29T00:58:37;95590.13;;;13.71;100.00
29169;BME280;16219;42.864;23.360;2023-05-29T01:01:04;95591.47;;;13.65;100.00
29169;BME280;16219;42.864;23.360;2023-05-29T01:03:32;95598.56;;;13.48;100.00
29169;BME280;16219;42.864;23.360;2023-05-29T01:05:59;95590.72;;;13.52;100.00
29169;BME280;16219;42.864;23.360;2023-05-29T01:08:26;95589.50;;;13.49;100.00
29169;BME280;16219;42.864;23.360;2023-05-29T01:10:57;95598.97;;;13.50;100.00
29169;BME280;16219;42.864;23.360;2023-05-29T01:13:29;95600.31;;;13.44;100.00
29169;BME280;16219;42.864;23.360;2023-05-29T01:16:03;95599.22;;;13.33;100.00
29169;BME280;16219;42.864;23.360;2023-05-29T01:18:41;95601.22;;;13.36;100.00
29169;BME280;16219;42.864;23.360;2023-05-29T01:21:17;95612.34;;;13.54;100.00
29169;BME280;16219;42.864;23.360;2023-05-29T01:24:02;95620.16;;;13.63;100.00
29169;BME280;16219;42.864;23.360;2023-05-29T01:26:41;95608.59;;;13.55;100.00
29169;BME280;16219;42.864;23.360;2023-05-29T01:29:14;95598.00;;;13.55;100.00
29169;BME280;16219;42.864;23.360;2023-05-29T01:31:42;95612.00;;;13.68;100.00
29169;BME280;16219;42.864;23.360;2023-05-29T01:34:10;95587.06;;;13.44;100.00
29169;BME280;16219;42.864;23.360;2023-05-29T01:36:37;95595.88;;;13.61;100.00
29169;BME280;16219;42.864;23.360;2023-05-29T01:39:05;95597.66;;;13.69;100.00
29169;BME280;16219;42.864;23.360;2023-05-29T01:41:32;95599.53;;;13.68;100.00
29169;BME280;16219;42.864;23.360;2023-05-29T01:44:04;95602.84;;;13.53;100.00
29169;BME280;16219;42.864;23.360;2023-05-29T01:46:34;95592.66;;;13.67;100.00
29169;BME280;16219;42.864;23.360;2023-05-29T01:49:02;95591.00;;;13.63;100.00
29169;BME280;16219;42.864;23.360;2023-05-29T01:51:30;95594.13;;;13.65;100.00
29169;BME280;16219;42.864;23.360;2023-05-29T01:53:59;95561.22;;;13.41;100.00
29169;BME280;16219;42.864;23.360;2023-05-29T01:56:27;95583.53;;;13.53;100.00
29169;BME280;16219;42.864;23.360;2023-05-29T01:58:55;95589.72;;;13.57;100.00
29169;BME280;16219;42.864;23.360;2023-05-29T02:01:24;95570.41;;;13.44;100.00
29169;BME280;16219;42.864;23.360;2023-05-29T02:03:51;95594.34;;;13.60;100.00
29169;BME280;16219;42.864;23.360;2023-05-29T02:06:19;95603.06;;;13.60;100.00
29169;BME280;16219;42.864;23.360;2023-05-29T02:08:46;95607.59;;;13.60;100.00
29169;BME280;16219;42.864;23.360;2023-05-29T02:11:13;95608.63;;;13.43;100.00
29169;BME280;16219;42.864;23.360;2023-05-29T02:13:41;95610.50;;;13.30;100.00
29169;BME280;16219;42.864;23.360;2023-05-29T02:16:09;95604.50;;;13.45;100.00
29169;BME280;16219;42.864;23.360;2023-05-29T02:18:37;95597.00;;;13.47;100.00
29169;BME280;16219;42.864;23.360;2023-05-29T02:21:05;95589.19;;;13.51;100.00
29169;BME280;16219;42.864;23.360;2023-05-29T02:23:33;95580.00;;;13.48;100.00
29169;BME280;16219;42.864;23.360;2023-05-29T02:26:00;95596.13;;;13.68;100.00
29169;BME280;16219;42.864;23.360;2023-05-29T02:28:27;95607.78;;;13.67;100.00
29169;BME280;16219;42.864;23.360;2023-05-29T02:30:54;95599.59;;;13.72;100.00
29169;BME280;16219;42.864;23.360;2023-05-29T02:33:21;95599.59;;;13.72;100.00
29169;BME280;16219;42.864;23.360;2023-05-29T02:35:50;95597.84;;;13.76;100.00
29169;BME280;16219;42.864;23.360;2023-05-29T02:38:16;95605.03;;;13.75;100.00
29169;BME280;16219;42.864;23.360;2023-05-29T02:40:44;95596.88;;;13.68;100.00
29169;BME280;16219;42.864;23.360;2023-05-29T02:43:13;95596.13;;;13.68;100.00
29169;BME280;16219;42.864;23.360;2023-05-29T02:45:40;95598.53;;;13.73;100.00
29169;BME280;16219;42.864;23.360;2023-05-29T02:48:07;95607.78;;;13.79;100.00
29169;BME280;16219;42.864;23.360;2023-05-29T02:50:34;95602.94;;;13.81;100.00
29169;BME280;16219;42.864;23.360;2023-05-29T02:53:03;95594.75;;;13.74;100.00
29169;BME280;16219;42.864;23.360;2023-05-29T02:55:30;95592.53;;;13.76;100.00
29169;BME280;16219;42.864;23.360;2023-05-29T02:58:01;95586.56;;;13.79;100.00
29169;BME280;16219;42.864;23.360;2023-05-29T03:00:29;95595.16;;;13.88;100.00
29169;BME280;16219;42.864;23.360;2023-05-29T03:02:57;95588.63;;;13.98;100.00
29169;BME280;16219;42.864;23.360;2023-05-29T03:05:25;95585.25;;;13.85;100.00
29169;BME280;16219;42.864;23.360;2023-05-29T03:07:52;95589.97;;;13.92;100.00
29169;BME280;16219;42.864;23.360;2023-05-29T03:10:21;95594.00;;;14.01;100.00
29169;BME280;16219;42.864;23.360;2023-05-29T03:12:48;95595.22;;;14.04;100.00
29169;BME280;16219;42.864;23.360;2023-05-29T03:15:17;95588.81;;;14.05;100.00
29169;BME280;16219;42.864;23.360;2023-05-29T03:17:45;95606.28;;;14.06;100.00
29169;BME280;16219;42.864;23.360;2023-05-29T03:20:16;95604.16;;;14.12;100.00
29169;BME280;16219;42.864;23.360;2023-05-29T03:22:44;95604.94;;;14.12;100.00
29169;BME280;16219;42.864;23.360;2023-05-29T03:25:11;95599.00;;;14.03;100.00
29169;BME280;16219;42.864;23.360;2023-05-29T03:27:40;95607.25;;;14.14;100.00
29169;BME280;16219;42.864;23.360;2023-05-29T03:30:12;95611.00;;;14.13;100.00
29169;BME280;16219;42.864;23.360;2023-05-29T03:32:39;95618.72;;;14.18;100.00
29169;BME280;16219;42.864;23.360;2023-05-29T03:35:07;95622.00;;;14.27;100.00
29169;BME280;16219;42.864;23.360;2023-05-29T03:37:37;95614.50;;;14.29;100.00
29169;BME280;16219;42.864;23.360;2023-05-29T03:40:05;95613.41;;;14.18;100.00
29169;BME280;16219;42.864;23.360;2023-05-29T03:42:33;95622.31;;;14.38;100.00
29169;BME280;16219;42.864;23.360;2023-05-29T03:45:03;95627.72;;;14.41;100.00
29169;BME280;16219;42.864;23.360;2023-05-29T03:47:32;95631.66;;;14.47;100.00
29169;BME280;16219;42.864;23.360;2023-05-29T03:50:00;95629.47;;;14.49;100.00
29169;BME280;16219;42.864;23.360;2023-05-29T03:52:31;95633.13;;;14.45;100.00
29169;BME280;16219;42.864;23.360;2023-05-29T03:54:59;95632.16;;;14.37;100.00
29169;BME280;16219;42.864;23.360;2023-05-29T03:57:26;95616.03;;;14.30;100.00
29169;BME280;16219;42.864;23.360;2023-05-29T03:59:53;95631.56;;;14.44;100.00
29169;BME280;16219;42.864;23.360;2023-05-29T04:02:23;95639.59;;;14.60;100.00
29169;BME280;16219;42.864;23.360;2023-05-29T04:04:50;95643.78;;;14.61;100.00
29169;BME280;16219;42.864;23.360;2023-05-29T04:07:18;95650.41;;;14.67;100.00
29169;BME280;16219;42.864;23.360;2023-05-29T04:09:47;95646.66;;;14.68;100.00
29169;BME280;16219;42.864;23.360;2023-05-29T04:12:14;95654.38;;;14.73;100.00
29169;BME280;16219;42.864;23.360;2023-05-29T04:14:42;95659.78;;;14.77;100.00
29169;BME280;16219;42.864;23.360;2023-05-29T04:17:09;95647.72;;;14.79;100.00
29169;BME280;16219;42.864;23.360;2023-05-29T04:19:37;95650.97;;;14.88;100.00
29169;BME280;16219;42.864;23.360;2023-05-29T04:22:04;95650.09;;;14.84;100.00
29169;BME280;16219;42.864;23.360;2023-05-29T04:24:32;95648.06;;;14.93;100.00
29169;BME280;16219;42.864;23.360;2023-05-29T04:27:01;95658.63;;;15.06;100.00
29169;BME280;16219;42.864;23.360;2023-05-29T04:29:29;95659.97;;;15.15;100.00
29169;BME280;16219;42.864;23.360;2023-05-29T04:31:56;95657.06;;;15.20;100.00
29169;BME280;16219;42.864;23.360;2023-05-29T04:34:23;95659.41;;;15.22;100.00
29169;BME280;16219;42.864;23.360;2023-05-29T04:36:52;95657.16;;;15.24;100.00
29169;BME280;16219;42.864;23.360;2023-05-29T04:39:19;95662.47;;;15.24;100.00
29169;BME280;16219;42.864;23.360;2023-05-29T04:41:48;95666.00;;;15.28;100.00
29169;BME280;16219;42.864;23.360;2023-05-29T04:44:19;95666.59;;;15.21;100.00
29169;BME280;16219;42.864;23.360;2023-05-29T04:46:49;95667.97;;;15.31;100.00
29169;BME280;16219;42.864;23.360;2023-05-29T04:49:17;95660.50;;;15.37;100.00
29169;BME280;16219;42.864;23.360;2023-05-29T04:51:46;95661.53;;;15.32;100.00
29169;BME280;16219;42.864;23.360;2023-05-29T04:54:14;95668.16;;;15.38;100.00
29169;BME280;16219;42.864;23.360;2023-05-29T04:56:42;95669.25;;;15.37;100.00
29169;BME280;16219;42.864;23.360;2023-05-29T04:59:13;95662.56;;;15.28;100.00
29169;BME280;16219;42.864;23.360;2023-05-29T05:01:40;95678.34;;;15.36;100.00
29169;BME280;16219;42.864;23.360;2023-05-29T05:04:09;95682.97;;;15.39;100.00
29169;BME280;16219;42.864;23.360;2023-05-29T05:06:36;95678.78;;;15.38;100.00
29169;BME280;16219;42.864;23.360;2023-05-29T05:09:05;95674.41;;;15.30;100.00
29169;BME280;16219;42.864;23.360;2023-05-29T05:11:34;95690.28;;;15.42;100.00
29169;BME280;16219;42.864;23.360;2023-05-29T05:14:01;95678.06;;;15.41;100.00
29169;BME280;16219;42.864;23.360;2023-05-29T05:16:29;95697.22;;;15.47;100.00
29169;BME280;16219;42.864;23.360;2023-05-29T05:18:59;95707.25;;;15.54;100.00
29169;BME280;16219;42.864;23.360;2023-05-29T05:21:26;95704.59;;;15.54;100.00
29169;BME280;16219;42.864;23.360;2023-05-29T05:23:57;95715.31;;;15.57;100.00
29169;BME280;16219;42.864;23.360;2023-05-29T05:26:25;95720.97;;;15.56;100.00
29169;BME280;16219;42.864;23.360;2023-05-29T05:28:54;95714.53;;;15.41;100.00
29169;BME280;16219;42.864;23.360;2023-05-29T05:31:23;95715.28;;;15.41;100.00
29169;BME280;16219;42.864;23.360;2023-05-29T05:33:51;95719.69;;;15.49;100.00
29169;BME280;16219;42.864;23.360;2023-05-29T05:36:19;95721.75;;;15.56;100.00
29169;BME280;16219;42.864;23.360;2023-05-29T05:38:51;95724.69;;;15.67;100.00
29169;BME280;16219;42.864;23.360;2023-05-29T05:41:18;95722.00;;;15.67;100.00
29169;BME280;16219;42.864;23.360;2023-05-29T05:43:46;95718.06;;;15.61;100.00
29169;BME280;16219;42.864;23.360;2023-05-29T05:46:25;95710.19;;;15.64;100.00
29169;BME280;16219;42.864;23.360;2023-05-29T05:48:53;95723.72;;;15.75;100.00
29169;BME280;16219;42.864;23.360;2023-05-29T05:51:23;95713.81;;;15.72;100.00
29169;BME280;16219;42.864;23.360;2023-05-29T05:53:51;95711.19;;;15.75;100.00
29169;BME280;16219;42.864;23.360;2023-05-29T05:56:19;95711.09;;;15.88;100.00
29169;BME280;16219;42.864;23.360;2023-05-29T05:58:46;95707.22;;;16.01;100.00
29169;BME280;16219;42.864;23.360;2023-05-29T06:01:17;95709.28;;;16.08;100.00
29169;BME280;16219;42.864;23.360;2023-05-29T06:03:47;95716.44;;;16.23;100.00
29169;BME280;16219;42.864;23.360;2023-05-29T06:06:15;95711.34;;;16.34;100.00
29169;BME280;16219;42.864;23.360;2023-05-29T06:08:44;95703.59;;;16.44;100.00
29169;BME280;16219;42.864;23.360;2023-05-29T06:11:12;95715.56;;;16.54;100.00
29169;BME280;16219;42.864;23.360;2023-05-29T06:13:42;95706.81;;;16.54;100.00
29169;BME280;16219;42.864;23.360;2023-05-29T06:16:16;95712.06;;;16.69;100.00
29169;BME280;16219;42.864;23.360;2023-05-29T06:18:43;95714.88;;;16.77;100.00
29169;BME280;16219;42.864;23.360;2023-05-29T06:21:13;95702.78;;;16.79;100.00
29169;BME280;16219;42.864;23.360;2023-05-29T06:23:47;95711.59;;;16.83;100.00
29169;BME280;16219;42.864;23.360;2023-05-29T06:26:15;95707.88;;;16.88;100.00
29169;BME280;16219;42.864;23.360;2023-05-29T06:28:42;95703.09;;;16.97;100.00
29169;BME280;16219;42.864;23.360;2023-05-29T06:31:09;95710.94;;;17.09;100.00
29169;BME280;16219;42.864;23.360;2023-05-29T06:33:37;95707.78;;;17.04;100.00
29169;BME280;16219;42.864;23.360;2023-05-29T06:36:05;95716.56;;;17.27;100.00
29169;BME280;16219;42.864;23.360;2023-05-29T06:38:36;95709.69;;;17.49;100.00
29169;BME280;16219;42.864;23.360;2023-05-29T06:41:03;95708.88;;;17.68;100.00
29169;BME280;16219;42.864;23.360;2023-05-29T06:43:33;95710.13;;;18.01;100.00
29169;BME280;16219;42.864;23.360;2023-05-29T06:46:02;95707.03;;;18.25;100.00
29169;BME280;16219;42.864;23.360;2023-05-29T06:48:32;95708.63;;;18.60;100.00
29169;BME280;16219;42.864;23.360;2023-05-29T06:50:59;95693.44;;;18.97;100.00
29169;BME280;16219;42.864;23.360;2023-05-29T06:54:03;95711.53;;;19.52;100.00
29169;BME280;16219;42.864;23.360;2023-05-29T06:56:32;95689.22;;;19.82;100.00
29169;BME280;16219;42.864;23.360;2023-05-29T06:59:00;95707.41;;;20.17;100.00
29169;BME280;16219;42.864;23.360;2023-05-29T07:01:30;95697.25;;;20.47;100.00
29169;BME280;16219;42.864;23.360;2023-05-29T07:04:02;95705.34;;;20.55;100.00
29169;BME280;16219;42.864;23.360;2023-05-29T07:06:30;95712.31;;;20.70;100.00
29169;BME280;16219;42.864;23.360;2023-05-29T07:08:59;95707.31;;;20.61;100.00
29169;BME280;16219;42.864;23.360;2023-05-29T07:11:28;95713.03;;;20.56;100.00
29169;BME280;16219;42.864;23.360;2023-05-29T07:13:55;95706.75;;;20.31;100.00
29169;BME280;16219;42.864;23.360;2023-05-29T07:16:25;95710.63;;;20.40;100.00
29169;BME280;16219;42.864;23.360;2023-05-29T07:18:57;95702.53;;;20.33;100.00
29169;BME280;16219;42.864;23.360;2023-05-29T07:21:27;95699.47;;;20.28;100.00
29169;BME280;16219;42.864;23.360;2023-05-29T07:23:54;95717.47;;;20.31;100.00
29169;BME280;16219;42.864;23.360;2023-05-29T07:26:22;95720.78;;;20.13;100.00
29169;BME280;16219;42.864;23.360;2023-05-29T07:28:51;95721.09;;;20.05;100.00
29169;BME280;16219;42.864;23.360;2023-05-29T07:31:19;95700.44;;;19.98;100.00
29169;BME280;16219;42.864;23.360;2023-05-29T07:33:47;95712.75;;;20.10;100.00
29169;BME280;16219;42.864;23.360;2023-05-29T07:36:16;95714.31;;;20.14;100.00
29169;BME280;16219;42.864;23.360;2023-05-29T07:38:46;95707.81;;;20.19;100.00
29169;BME280;16219;42.864;23.360;2023-05-29T07:41:15;95707.44;;;20.20;100.00
29169;BME280;16219;42.864;23.360;2023-05-29T07:43:51;95712.16;;;20.41;100.00
29169;BME280;16219;42.864;23.360;2023-05-29T07:46:19;95710.00;;;20.65;100.00
29169;BME280;16219;42.864;23.360;2023-05-29T07:48:49;95715.34;;;20.61;100.00
29169;BME280;16219;42.864;23.360;2023-05-29T07:51:17;95708.09;;;20.69;100.00
29169;BME280;16219;42.864;23.360;2023-05-29T07:53:47;95699.28;;;20.72;100.00
29169;BME280;16219;42.864;23.360;2023-05-29T07:56:16;95709.28;;;20.79;100.00
29169;BME280;16219;42.864;23.360;2023-05-29T07:58:44;95710.03;;;20.79;100.00
29169;BME280;16219;42.864;23.360;2023-05-29T08:01:13;95705.44;;;20.80;100.00
29169;BME280;16219;42.864;23.360;2023-05-29T08:03:41;95718.53;;;20.95;100.00
29169;BME280;16219;42.864;23.360;2023-05-29T08:06:24;95730.44;;;21.19;100.00
29169;BME280;16219;42.864;23.360;2023-05-29T08:08:52;95729.75;;;21.33;100.00
29169;BME280;16219;42.864;23.360;2023-05-29T08:11:21;95721.25;;;21.10;100.00
29169;BME280;16219;42.864;23.360;2023-05-29T08:13:48;95719.72;;;21.12;100.00
29169;BME280;16219;42.864;23.360;2023-05-29T08:16:18;95732.44;;;21.40;100.00
29169;BME280;16219;42.864;23.360;2023-05-29T08:18:45;95738.59;;;21.48;100.00
29169;BME280;16219;42.864;23.360;2023-05-29T08:21:13;95737.84;;;21.76;100.00
29169;BME280;16219;42.864;23.360;2023-05-29T08:23:40;95735.53;;;22.07;100.00
29169;BME280;16219;42.864;23.360;2023-05-29T08:26:07;95743.22;;;21.87;100.00
29169;BME280;16219;42.864;23.360;2023-05-29T08:28:34;95734.41;;;21.72;100.00
29169;BME280;16219;42.864;23.360;2023-05-29T08:31:01;95738.22;;;21.85;100.00
29169;BME280;16219;42.864;23.360;2023-05-29T08:33:29;95739.41;;;21.88;100.00
29169;BME280;16219;42.864;23.360;2023-05-29T08:35:58;95731.69;;;21.51;100.00
29169;BME280;16219;42.864;23.360;2023-05-29T08:38:25;95740.13;;;21.38;100.00
29169;BME280;16219;42.864;23.360;2023-05-29T08:40:52;95733.22;;;21.41;100.00
29169;BME280;16219;42.864;23.360;2023-05-29T08:43:21;95732.09;;;21.45;100.00
29169;BME280;16219;42.864;23.360;2023-05-29T08:45:53;95734.38;;;21.47;100.00
29169;BME280;16219;42.864;23.360;2023-05-29T08:48:22;95731.31;;;21.56;100.00
29169;BME280;16219;42.864;23.360;2023-05-29T08:50:53;95733.59;;;21.57;100.00
29169;BME280;16219;42.864;23.360;2023-05-29T08:53:21;95719.44;;;21.64;100.00
29169;BME280;16219;42.864;23.360;2023-05-29T08:55:49;95720.97;;;21.86;100.00
29169;BME280;16219;42.864;23.360;2023-05-29T08:58:18;95712.53;;;21.88;100.00
29169;BME280;16219;42.864;23.360;2023-05-29T09:00:47;95705.59;;;22.05;100.00
29169;BME280;16219;42.864;23.360;2023-05-29T09:03:15;95704.81;;;22.08;94.14
29169;BME280;16219;42.864;23.360;2023-05-29T09:05:44;95702.13;;;22.26;100.00
29169;BME280;16219;42.864;23.360;2023-05-29T09:08:13;95707.06;;;22.52;100.00
29169;BME280;16219;42.864;23.360;2023-05-29T09:10:41;95710.81;;;22.73;97.17
29169;BME280;16219;42.864;23.360;2023-05-29T09:13:09;95710.06;;;22.68;93.86
29169;BME280;16219;42.864;23.360;2023-05-29T09:15:37;95717.03;;;22.52;100.00
29169;BME280;16219;42.864;23.360;2023-05-29T09:18:06;95711.72;;;22.30;100.00
29169;BME280;16219;42.864;23.360;2023-05-29T09:20:34;95701.00;;;22.02;98.32
29169;BME280;16219;42.864;23.360;2023-05-29T09:23:03;95703.34;;;21.71;99.20
29169;BME280;16219;42.864;23.360;2023-05-29T09:25:33;95694.91;;;21.55;96.40
29169;BME280;16219;42.864;23.360;2023-05-29T09:28:02;95699.84;;;21.74;100.00
29169;BME280;16219;42.864;23.360;2023-05-29T09:30:36;95693.31;;;22.04;94.23
29169;BME280;16219;42.864;23.360;2023-05-29T09:33:04;95686.41;;;21.95;89.40
29169;BME280;16219;42.864;23.360;2023-05-29T09:35:36;95678.75;;;21.83;97.99
29169;BME280;16219;42.864;23.360;2023-05-29T09:38:04;95658.81;;;21.88;98.01
29169;BME280;16219;42.864;23.360;2023-05-29T09:40:34;95666.06;;;22.16;100.00
29169;BME280;16219;42.864;23.360;2023-05-29T09:43:03;95674.78;;;22.49;100.00
29169;BME280;16219;42.864;23.360;2023-05-29T09:45:37;95670.63;;;22.33;93.87
29169;BME280;16219;42.864;23.360;2023-05-29T09:48:06;95668.75;;;22.12;96.74
29169;BME280;16219;42.864;23.360;2023-05-29T09:50:34;95658.00;;;22.16;90.61
29169;BME280;16219;42.864;23.360;2023-05-29T09:53:02;95663.38;;;22.23;94.08
29169;BME280;16219;42.864;23.360;2023-05-29T09:55:32;95670.22;;;22.38;86.14
29169;BME280;16219;42.864;23.360;2023-05-29T09:58:02;95670.25;;;22.24;85.18
29169;BME280;16219;42.864;23.360;2023-05-29T10:00:29;95665.66;;;22.32;85.29
29169;BME280;16219;42.864;23.360;2023-05-29T10:02:58;95677.09;;;22.50;88.32
29169;BME280;16219;42.864;23.360;2023-05-29T10:05:25;95659.78;;;22.55;89.42
29169;BME280;16219;42.864;23.360;2023-05-29T10:07:54;95652.53;;;22.44;88.33
29169;BME280;16219;42.864;23.360;2023-05-29T10:10:24;95641.88;;;22.16;86.52
29169;BME280;16219;42.864;23.360;2023-05-29T10:12:55;95656.44;;;22.11;89.57
29169;BME280;16219;42.864;23.360;2023-05-29T10:15:23;95651.03;;;22.29;86.31
29169;BME280;16219;42.864;23.360;2023-05-29T10:18:01;95612.66;;;22.32;94.75
29169;BME280;16219;42.864;23.360;2023-05-29T10:20:31;95636.34;;;22.55;80.63
29169;BME280;16219;42.864;23.360;2023-05-29T10:23:00;95645.78;;;22.88;83.90
29169;BME280;16219;42.864;23.360;2023-05-29T10:25:31;95621.66;;;22.78;69.82
29169;BME280;16219;42.864;23.360;2023-05-29T10:28:01;95638.38;;;23.10;73.66
29169;BME280;16219;42.864;23.360;2023-05-29T10:30:35;95642.81;;;23.35;79.39
29169;BME280;16219;42.864;23.360;2023-05-29T10:33:21;95614.34;;;23.37;82.64
29169;BME280;16219;42.864;23.360;2023-05-29T10:35:55;95638.34;;;23.66;72.82
29169;BME280;16219;42.864;23.360;2023-05-29T10:38:24;95633.78;;;23.59;63.61
29169;BME280;16219;42.864;23.360;2023-05-29T10:40:54;95627.25;;;23.57;63.30
29169;BME280;16219;42.864;23.360;2023-05-29T10:43:34;95631.81;;;23.67;77.14
29169;BME280;16219;42.864;23.360;2023-05-29T10:46:03;95609.53;;;23.59;64.31
29169;BME280;16219;42.864;23.360;2023-05-29T10:48:40;95627.16;;;23.71;77.14
29169;BME280;16219;42.864;23.360;2023-05-29T10:51:08;95619.44;;;23.25;82.52
29169;BME280;16219;42.864;23.360;2023-05-29T10:53:35;95613.38;;;23.10;81.06
29169;BME280;16219;42.864;23.360;2023-05-29T10:56:14;95589.94;;;23.10;95.64
29169;BME280;16219;42.864;23.360;2023-05-29T10:58:44;95598.13;;;23.44;78.93
29169;BME280;16219;42.864;23.360;2023-05-29T11:01:16;95597.56;;;23.64;90.24
29169;BME280;16219;42.864;23.360;2023-05-29T11:03:47;95601.25;;;23.84;81.58
29169;BME280;16219;42.864;23.360;2023-05-29T11:06:18;95593.16;;;23.84;80.80
29169;BME280;16219;42.864;23.360;2023-05-29T11:08:47;95596.66;;;23.81;75.83
29169;BME280;16219;42.864;23.360;2023-05-29T11:11:15;95595.56;;;23.75;76.32
29169;BME280;16219;42.864;23.360;2023-05-29T11:14:01;95602.69;;;23.92;86.63
29169;BME280;16219;42.864;23.360;2023-05-29T11:16:37;95591.25;;;24.19;88.62
29169;BME280;16219;42.864;23.360;2023-05-29T11:19:05;95590.66;;;24.38;82.68
29169;BME280;16219;42.864;23.360;2023-05-29T11:21:46;95592.88;;;24.13;75.64
29169;BME280;16219;42.864;23.360;2023-05-29T11:24:19;95586.13;;;23.94;70.32
29169;BME280;16219;42.864;23.360;2023-05-29T11:26:48;95593.78;;;23.95;78.36
29169;BME280;16219;42.864;23.360;2023-05-29T11:29:21;95579.28;;;23.86;83.91
29169;BME280;16219;42.864;23.360;2023-05-29T11:31:53;95582.88;;;24.10;79.92
29169;BME280;16219;42.864;23.360;2023-05-29T11:34:23;95573.66;;;24.07;75.96
29169;BME280;16219;42.864;23.360;2023-05-29T11:36:53;95567.06;;;24.12;84.81
29169;BME280;16219;42.864;23.360;2023-05-29T11:39:21;95591.63;;;24.52;76.06
29169;BME280;16219;42.864;23.360;2023-05-29T11:41:50;95589.81;;;24.72;69.03
29169;BME280;16219;42.864;23.360;2023-05-29T11:44:20;95594.75;;;24.47;67.77
29169;BME280;16219;42.864;23.360;2023-05-29T11:46:59;95600.25;;;24.05;83.46
29169;BME280;16219;42.864;23.360;2023-05-29T11:49:29;95591.00;;;23.68;73.91
29169;BME280;16219;42.864;23.360;2023-05-29T11:52:06;95607.19;;;23.65;92.66
29169;BME280;16219;42.864;23.360;2023-05-29T11:54:33;95601.22;;;23.43;81.87
29169;BME280;16219;42.864;23.360;2023-05-29T11:57:00;95594.94;;;23.12;80.13
29169;BME280;16219;42.864;23.360;2023-05-29T11:59:30;95613.91;;;22.87;83.47
29169;BME280;16219;42.864;23.360;2023-05-29T12:01:59;95615.56;;;22.63;84.99
29169;BME280;16219;42.864;23.360;2023-05-29T12:04:26;95616.88;;;22.30;90.24
29169;BME280;16219;42.864;23.360;2023-05-29T12:06:53;95619.97;;;22.21;92.11
29169;BME280;16219;42.864;23.360;2023-05-29T12:09:24;95629.56;;;22.26;95.58
29169;BME280;16219;42.864;23.360;2023-05-29T12:11:53;95619.53;;;22.37;98.75
29169;BME280;16219;42.864;23.360;2023-05-29T12:14:20;95637.53;;;22.51;97.11
29169;BME280;16219;42.864;23.360;2023-05-29T12:16:49;95631.44;;;22.36;96.25
29169;BME280;16219;42.864;23.360;2023-05-29T12:19:16;95636.53;;;22.02;96.76
29169;BME280;16219;42.864;23.360;2023-05-29T12:21:44;95645.03;;;21.54;100.00
29169;BME280;16219;42.864;23.360;2023-05-29T12:24:11;95647.34;;;21.37;100.00
29169;BME280;16219;42.864;23.360;2023-05-29T12:26:39;95632.72;;;21.06;100.00
29169;BME280;16219;42.864;23.360;2023-05-29T12:29:07;95628.88;;;20.93;100.00
29169;BME280;16219;42.864;23.360;2023-05-29T12:31:35;95641.88;;;20.87;100.00
29169;BME280;16219;42.864;23.360;2023-05-29T12:34:12;95639.97;;;20.91;100.00
29169;BME280;16219;42.864;23.360;2023-05-29T12:36:41;95638.09;;;21.03;100.00
29169;BME280;16219;42.864;23.360;2023-05-29T12:39:08;95639.25;;;21.09;100.00
29169;BME280;16219;42.864;23.360;2023-05-29T12:41:37;95627.75;;;21.05;100.00
29169;BME280;16219;42.864;23.360;2023-05-29T12:44:06;95645.00;;;21.21;100.00
29169;BME280;16219;42.864;23.360;2023-05-29T12:46:38;95629.72;;;21.33;100.00
29169;BME280;16219;42.864;23.360;2023-05-29T12:49:14;95632.00;;;21.52;100.00
29169;BME280;16219;42.864;23.360;2023-05-29T12:51:43;95625.84;;;21.66;100.00
29169;BME280;16219;42.864;23.360;2023-05-29T12:54:11;95628.16;;;21.53;100.00